Auburn, Wyoming
Current Conditions -  °F | °C
As of 10:15 PM on Saturday 25 Oct 2014 (Local Time) from KAFO Reporting Station
Clear Clear  
Wind Chill: 43°   Ceiling: Unl
Heat Index: 46°   Visibility: 10mi
Dew Point: 32°   Wind: 7mph
Humidity: 57%   Direction: 180°S
Pressure: 29.92"   Gusts: NA
Location:  42.79°N, 111°W
Report Text: KAFO 260415Z AUTO 18006KT 10SM CLR 08/00 A2992 RMK AO2
Loading
Personal Weather Stations






























Interactive Weather Map
Tropical Storm Tracking
New forecast layout! Learn more

10-Day Weather Forecast

Advertisements
Track Severe Weather on mobile